• Join FlightAware (Why Join?)
  • Login
  • US Flag 
07:43AM EDT


 

Airport Tracker/Info


-or-


 

Live Flight TrackerFlight Track Log ✈ N920CS ✈ 03-Nov-2013 ✈ KCRG - KPDK

Flight Track Log - Related Links

Times and Time Zones

All times are in EST time to prevent confusion due to time zone crossing. See the N920CS flight status page for this flight to view local times or setup timezone preferences in your user account.

Time Position Orientation Groundspeed Altitude Reporting Facility
EST Latitude Longitude Course Direction KTS MPH feet Rate Location/Type
01:34PM 30.3383 -81.5061 360° North 87 100 700  Level Jacksonville Center
01:34PM 30.3383 -81.5061 357° North 88 101 700 780 Level Jacksonville Center
01:36PM 30.3697 -81.5083 357° North 119 137 1,600 960 Climbing Jacksonville Center
01:37PM 30.4031 -81.5100 358° North 122 140 2,700 1,080 Climbing Jacksonville Center
01:38PM 30.4386 -81.5072 North 124 143 3,900 1,080 Climbing Jacksonville Center
01:39PM 30.4742 -81.5092 357° North 123 142 5,000 1,140 Climbing Jacksonville Center
01:40PM 30.5097 -81.5133 354° North 126 145 6,200 960 Climbing Jacksonville Center
01:41PM 30.5450 -81.5128 North 129 148 7,000 360 Climbing Jacksonville Center
01:42PM 30.5911 -81.5122 North 154 177 7,000  Level Jacksonville Center
01:43PM 30.6369 -81.5092 North 156 180 7,000  Level Jacksonville Center
01:43PM 30.6472 -81.5089 North 150 173 7,000  Level Jacksonville Center
01:44PM 30.6786 -81.4989 15° North 156 180 7,000  Level Jacksonville Center
01:44PM 30.6889 -81.4986 North 155 178 7,000  Level Jacksonville Center
01:45PM 30.7222 -81.4933 North 156 180 7,000  Level Jacksonville Center
01:45PM 30.7286 -81.4933 360° North 155 178 7,000  Level Jacksonville Center
01:46PM 30.7722 -81.4831 11° North 176 203 7,000 -60 Level Jacksonville Center
01:47PM 30.8161 -81.4750 North 169 194 6,900  Descending Jacksonville Center
01:48PM 30.8597 -81.4672 North 159 183 7,000  Climbing Jacksonville Center
01:49PM 30.9014 -81.4569 12° North 159 183 7,000  Level Jacksonville Center
01:50PM 30.9472 -81.4489 North 159 183 7,000 -60 Level Jacksonville Center
01:51PM 30.9889 -81.4411 North 159 183 6,900  Descending Jacksonville Center
01:52PM 31.0286 -81.4306 13° North 159 183 7,000  Climbing Jacksonville Center
01:53PM 31.0744 -81.4228 North 159 183 7,000  Level Jacksonville Center
01:54PM 31.1181 -81.4122 12° North 159 183 7,000  Level Jacksonville Center
01:55PM 31.1597 -81.4044 North 159 183 7,000  Level Jacksonville Center
01:56PM 31.1994 -81.3964 10° North 159 183 7,000  Level Jacksonville Center
01:57PM 31.2431 -81.3886 North 159 183 7,000  Level Jacksonville Center
01:58PM 31.2889 -81.3781 11° North 159 183 7,000  Level Jacksonville Center
01:59PM 31.3328 -81.3675 12° North 159 183 7,000  Level Jacksonville Center
02:00PM 31.3764 -81.3619 North 159 183 7,000  Level Jacksonville Center
02:01PM 31.4139 -81.3517 13° North 159 183 7,000  Level Jacksonville Center
02:02PM 31.4578 -81.3436 North 159 183 7,000  Level Jacksonville Center
02:03PM 31.5075 -81.3331 10° North 159 183 7,000  Level Jacksonville Center
02:04PM 31.5514 -81.3225 12° North 159 183 7,000  Level Jacksonville Center
02:05PM 31.5908 -81.3169 North 159 183 7,000  Level Jacksonville Center
02:06PM 31.6347 -81.3089 North 159 183 7,000  Level Jacksonville Center
02:07PM 31.6828 -81.3178 351° North 159 183 7,000  Level Jacksonville Center
02:08PM 31.7267 -81.3269 350° North 159 183 7,000 60 Level Jacksonville Center
02:10PM 31.7966 -81.3023 17° North  Level FlightAware Approximate
02:17PM 32.0847 -81.2006 17° North  Level FlightAware Approximate
02:18PM 32.1258 -81.1860 17° North  Level FlightAware Approximate
02:19PM 32.1551 -81.2212 304° West  Level FlightAware Approximate
02:20PM 32.1790 -81.2628 304° West  Level FlightAware Approximate
02:21PM 32.2028 -81.3044 304° West  Level FlightAware Approximate
02:22PM 32.2267 -81.3460 304° West  Level FlightAware Approximate
02:22PM 32.2881 -81.6811 304° West 178 205 8,000  Level Jacksonville Center
02:23PM 32.2505 -81.3877 304° West  Level FlightAware Approximate
02:23PM 32.3178 -81.7250 309° West 178 205 8,000  Level Jacksonville Center
02:24PM 32.2743 -81.4294 304° West  Level FlightAware Approximate
02:24PM 32.3431 -81.7689 304° West 178 205 8,000  Level Jacksonville Center
02:25PM 32.2982 -81.4711 304° West  Level FlightAware Approximate
02:25PM 32.3728 -81.8153 307° West 173 199 8,000  Level Jacksonville Center
02:26PM 32.3220 -81.5129 304° West  Level FlightAware Approximate
02:27PM 32.3458 -81.5546 304° West  Level FlightAware Approximate
02:27PM 32.4142 -81.8761 309° West 172 198 8,000  Level Atlanta Center
02:28PM 32.3695 -81.5964 304° West  Level FlightAware Approximate
02:28PM 32.4422 -81.9247 304° West 172 198 8,000  Level Atlanta Center
02:29PM 32.4700 -81.9658 309° West 172 198 8,000  Level Atlanta Center
02:30PM 32.4981 -82.0119 306° West 172 198 8,000  Level Atlanta Center
02:31PM 32.5258 -82.0581 306° West 172 198 8,000  Level Atlanta Center
02:32PM 32.5539 -82.1044 306° West 172 198 8,000  Level Atlanta Center
02:33PM 32.5817 -82.1456 309° West 172 198 8,000  Level Atlanta Center
02:34PM 32.6072 -82.1869 306° West 172 198 8,000  Level Atlanta Center
02:35PM 32.6350 -82.2383 303° West 172 198 8,000  Level Atlanta Center
02:36PM 32.6608 -82.2822 305° West 177 204 8,000  Level Atlanta Center
02:37PM 32.6906 -82.3258 309° West 171 197 8,000  Level Atlanta Center
02:38PM 32.7183 -82.3675 308° West 169 194 8,000  Level Atlanta Center
02:39PM 32.7442 -82.4164 302° West 169 194 8,000  Level Atlanta Center
02:40PM 32.7739 -82.4628 307° West 175 201 8,000  Level Atlanta Center
02:41PM 32.8017 -82.5042 309° West 169 194 8,000  Level Atlanta Center
02:42PM 32.8272 -82.5508 303° West 169 194 8,000  Level Atlanta Center
02:43PM 32.8547 -82.5947 307° West 169 194 8,000  Level Atlanta Center
02:44PM 32.8825 -82.6389 307° West 169 194 8,000  Level Atlanta Center
02:45PM 32.9100 -82.6853 305° West 169 194 8,000  Level Atlanta Center
02:46PM 32.9378 -82.7319 305° West 169 194 8,000  Level Atlanta Center
02:47PM 32.9653 -82.7786 305° West 169 194 8,000  Level Atlanta Center
02:48PM 32.9847 -82.8228 298° West 169 194 8,000  Level Atlanta Center
02:49PM 33.0100 -82.8722 301° West 169 194 8,000  Level Atlanta Center
02:50PM 33.0314 -82.9189 299° West 169 194 8,000 -60 Level Atlanta Center
02:51PM 33.0550 -82.9706 299° West 175 201 7,900 -300 Descending Atlanta Center
02:52PM 33.0803 -83.0225 300° West 180 207 7,400 -540 Descending Atlanta Center
02:53PM 33.1167 -83.1000 299° West 176 203 6,500 -540 Descending Atlanta TRACON
02:54PM 33.1500 -83.1500 309° West 177 204 6,100 -300 Descending Atlanta TRACON
02:55PM 33.1667 -83.2000 292° West 168 193 6,000 -60 Descending Atlanta TRACON
02:56PM 33.1833 -83.2500 292° West 165 190 6,000  Level Atlanta TRACON
02:57PM 33.2167 -83.3000 309° West 165 190 6,000  Level Atlanta TRACON
02:58PM 33.2333 -83.3500 292° West 162 186 6,000  Level Atlanta TRACON
03:00PM 33.2667 -83.4000 309° West 170 196 6,000  Level Atlanta TRACON
03:00PM 33.2833 -83.4500 292° West 173 199 6,000 -60 Level Atlanta TRACON
03:01PM 33.3000 -83.4833 301° West 175 201 5,900 -60 Descending Atlanta TRACON
03:02PM 33.3333 -83.5333 309° West 176 203 5,900  Level Atlanta TRACON
03:03PM 33.3500 -83.6000 287° West 176 203 5,900  Level Atlanta TRACON
03:04PM 33.3833 -83.6333 320° Northwest 174 200 6,000 -60 Climbing Atlanta TRACON
03:06PM 33.4167 -83.6833 309° West 170 196 5,800 -360 Descending Atlanta TRACON
03:07PM 33.4667 -83.7000 344° North 182 209 5,300 -600 Descending Atlanta TRACON
03:08PM 33.5000 -83.7333 320° Northwest 184 212 4,700 -540 Descending Atlanta TRACON
03:08PM 33.5500 -83.7667 331° Northwest 187 215 4,300 -420 Descending Atlanta TRACON
03:09PM 33.6000 -83.7833 344° North 179 206 4,000 -180 Descending Atlanta TRACON
03:11PM 33.6333 -83.8167 320° Northwest 162 186 4,000  Level Atlanta TRACON
03:11PM 33.6667 -83.8333 337° Northwest 159 183 4,000  Level Atlanta TRACON
03:12PM 33.7167 -83.8500 345° North 158 182 4,000  Level Atlanta TRACON
03:14PM 33.7500 -83.8833 320° Northwest 160 184 4,000  Level Atlanta TRACON
03:15PM 33.8000 -83.9000 345° North 157 181 4,000  Level Atlanta TRACON
03:16PM 33.8333 -83.9333 320° Northwest 156 180 4,000  Level Atlanta TRACON
03:17PM 33.8667 -83.9500 337° Northwest 141 162 4,000  Level Atlanta TRACON
03:18PM 33.9000 -83.9833 320° Northwest 138 159 4,000  Level Atlanta TRACON
03:19PM 33.9000 -84.0333 270° West 139 160 4,000 -120 Level Atlanta TRACON
03:20PM 33.8833 -84.0667 239° Southwest 139 160 3,800 -360 Descending Atlanta TRACON
03:21PM 33.8833 -84.1167 270° West 155 178 3,300 -540 Descending Atlanta TRACON
03:22PM 33.8667 -84.1667 248° West 134 154 2,800 -480 Descending Atlanta TRACON
03:23PM 33.8667 -84.2000 270° West 122 140 2,400 -240 Descending Atlanta TRACON
03:24PM 33.8500 -84.2500 248° West 125 144 2,400 -240 Level Atlanta TRACON
03:25PM 33.8500 -84.2833 270° West 105 121 2,000 -480 Descending Atlanta TRACON
03:26PM 33.8500 -84.3167 270° West 103 119 1,500 -540 Descending Atlanta TRACON
03:28PM 33.8756 -84.3020 25° Northeast  Level Estimated
03:35PM 33.8756 -84.3020 301° West  Level Estimated